sensor_id;sensor_type;location;lat;lon;timestamp;P1;durP1;ratioP1;P2;durP2;ratioP2
16813;SDS011;8524;57.650;11.926;2023-07-20T00:01:51;6.27;;;2.20;;
16813;SDS011;8524;57.650;11.926;2023-07-20T00:04:18;5.60;;;2.33;;
16813;SDS011;8524;57.650;11.926;2023-07-20T00:06:45;5.63;;;2.33;;
16813;SDS011;8524;57.650;11.926;2023-07-20T00:09:12;7.50;;;2.20;;
16813;SDS011;8524;57.650;11.926;2023-07-20T00:11:39;6.93;;;2.23;;
16813;SDS011;8524;57.650;11.926;2023-07-20T00:14:06;9.30;;;2.80;;
16813;SDS011;8524;57.650;11.926;2023-07-20T00:16:33;6.87;;;2.57;;
16813;SDS011;8524;57.650;11.926;2023-07-20T00:19:02;8.73;;;2.40;;
16813;SDS011;8524;57.650;11.926;2023-07-20T00:21:32;6.90;;;2.60;;
16813;SDS011;8524;57.650;11.926;2023-07-20T00:23:59;7.13;;;2.20;;
16813;SDS011;8524;57.650;11.926;2023-07-20T00:26:26;6.37;;;2.00;;
16813;SDS011;8524;57.650;11.926;2023-07-20T00:28:53;7.37;;;2.47;;
16813;SDS011;8524;57.650;11.926;2023-07-20T00:31:19;7.17;;;2.40;;
16813;SDS011;8524;57.650;11.926;2023-07-20T00:33:47;7.15;;;2.60;;
16813;SDS011;8524;57.650;11.926;2023-07-20T00:36:15;4.13;;;2.07;;
16813;SDS011;8524;57.650;11.926;2023-07-20T00:38:42;7.60;;;2.40;;
16813;SDS011;8524;57.650;11.926;2023-07-20T00:41:09;5.90;;;2.33;;
16813;SDS011;8524;57.650;11.926;2023-07-20T00:43:36;8.10;;;2.47;;
16813;SDS011;8524;57.650;11.926;2023-07-20T00:46:03;7.63;;;2.80;;
16813;SDS011;8524;57.650;11.926;2023-07-20T00:48:31;4.83;;;2.20;;
16813;SDS011;8524;57.650;11.926;2023-07-20T00:50:58;6.50;;;2.20;;
16813;SDS011;8524;57.650;11.926;2023-07-20T00:53:30;7.53;;;2.30;;
16813;SDS011;8524;57.650;11.926;2023-07-20T00:55:57;6.77;;;2.50;;
16813;SDS011;8524;57.650;11.926;2023-07-20T00:58:24;5.93;;;1.87;;
16813;SDS011;8524;57.650;11.926;2023-07-20T01:00:51;6.47;;;2.30;;
16813;SDS011;8524;57.650;11.926;2023-07-20T01:03:18;5.03;;;2.13;;
16813;SDS011;8524;57.650;11.926;2023-07-20T01:05:47;6.70;;;2.43;;
16813;SDS011;8524;57.650;11.926;2023-07-20T01:08:23;6.27;;;2.00;;
16813;SDS011;8524;57.650;11.926;2023-07-20T01:11:01;7.40;;;1.83;;
16813;SDS011;8524;57.650;11.926;2023-07-20T01:13:36;5.10;;;2.03;;
16813;SDS011;8524;57.650;11.926;2023-07-20T01:16:04;6.47;;;2.20;;
16813;SDS011;8524;57.650;11.926;2023-07-20T01:18:31;8.13;;;2.63;;
16813;SDS011;8524;57.650;11.926;2023-07-20T01:20:59;5.50;;;2.03;;
16813;SDS011;8524;57.650;11.926;2023-07-20T01:23:44;5.17;;;2.00;;
16813;SDS011;8524;57.650;11.926;2023-07-20T01:29:34;5.20;;;2.37;;
16813;SDS011;8524;57.650;11.926;2023-07-20T01:32:11;6.23;;;2.13;;
16813;SDS011;8524;57.650;11.926;2023-07-20T01:34:38;5.13;;;1.63;;
16813;SDS011;8524;57.650;11.926;2023-07-20T01:37:07;5.93;;;2.10;;
16813;SDS011;8524;57.650;11.926;2023-07-20T01:39:36;5.47;;;2.43;;
16813;SDS011;8524;57.650;11.926;2023-07-20T01:42:05;9.50;;;3.03;;
16813;SDS011;8524;57.650;11.926;2023-07-20T01:44:32;6.67;;;2.40;;
16813;SDS011;8524;57.650;11.926;2023-07-20T01:46:59;6.33;;;1.83;;
16813;SDS011;8524;57.650;11.926;2023-07-20T01:49:27;7.33;;;2.33;;
16813;SDS011;8524;57.650;11.926;2023-07-20T01:51:54;6.40;;;2.10;;
16813;SDS011;8524;57.650;11.926;2023-07-20T01:54:21;7.03;;;2.53;;
16813;SDS011;8524;57.650;11.926;2023-07-20T01:56:48;7.30;;;1.90;;
16813;SDS011;8524;57.650;11.926;2023-07-20T01:59:15;7.03;;;2.10;;
16813;SDS011;8524;57.650;11.926;2023-07-20T02:01:42;6.80;;;1.90;;
16813;SDS011;8524;57.650;11.926;2023-07-20T02:04:09;5.07;;;1.90;;
16813;SDS011;8524;57.650;11.926;2023-07-20T02:06:37;6.33;;;2.00;;
16813;SDS011;8524;57.650;11.926;2023-07-20T02:09:04;6.00;;;1.90;;
16813;SDS011;8524;57.650;11.926;2023-07-20T02:11:31;5.93;;;2.20;;
16813;SDS011;8524;57.650;11.926;2023-07-20T02:13:58;5.22;;;2.20;;
16813;SDS011;8524;57.650;11.926;2023-07-20T02:16:26;6.47;;;2.20;;
16813;SDS011;8524;57.650;11.926;2023-07-20T02:18:53;6.27;;;2.07;;
16813;SDS011;8524;57.650;11.926;2023-07-20T02:21:22;4.77;;;2.13;;
16813;SDS011;8524;57.650;11.926;2023-07-20T02:23:50;8.87;;;2.07;;
16813;SDS011;8524;57.650;11.926;2023-07-20T02:26:17;6.83;;;2.47;;
16813;SDS011;8524;57.650;11.926;2023-07-20T02:28:44;5.17;;;2.00;;
16813;SDS011;8524;57.650;11.926;2023-07-20T02:31:11;4.20;;;1.90;;
16813;SDS011;8524;57.650;11.926;2023-07-20T02:33:38;3.97;;;1.90;;
16813;SDS011;8524;57.650;11.926;2023-07-20T02:36:05;6.35;;;2.17;;
16813;SDS011;8524;57.650;11.926;2023-07-20T02:38:32;7.30;;;2.30;;
16813;SDS011;8524;57.650;11.926;2023-07-20T02:41:00;5.13;;;1.80;;
16813;SDS011;8524;57.650;11.926;2023-07-20T02:43:27;4.20;;;1.80;;
16813;SDS011;8524;57.650;11.926;2023-07-20T02:45:54;4.13;;;1.83;;
16813;SDS011;8524;57.650;11.926;2023-07-20T02:48:21;4.90;;;1.83;;
16813;SDS011;8524;57.650;11.926;2023-07-20T02:50:48;5.67;;;2.23;;
16813;SDS011;8524;57.650;11.926;2023-07-20T02:53:15;6.00;;;1.90;;
16813;SDS011;8524;57.650;11.926;2023-07-20T02:55:45;5.80;;;2.10;;
16813;SDS011;8524;57.650;11.926;2023-07-20T02:58:14;3.77;;;1.50;;
16813;SDS011;8524;57.650;11.926;2023-07-20T03:00:42;5.23;;;2.30;;
16813;SDS011;8524;57.650;11.926;2023-07-20T03:03:09;4.53;;;1.90;;
16813;SDS011;8524;57.650;11.926;2023-07-20T03:05:36;4.40;;;2.23;;
16813;SDS011;8524;57.650;11.926;2023-07-20T03:08:05;4.17;;;1.70;;
16813;SDS011;8524;57.650;11.926;2023-07-20T03:10:32;3.43;;;1.53;;
16813;SDS011;8524;57.650;11.926;2023-07-20T03:13:04;9.47;;;2.03;;
16813;SDS011;8524;57.650;11.926;2023-07-20T03:15:33;4.13;;;1.87;;
16813;SDS011;8524;57.650;11.926;2023-07-20T03:18:00;4.63;;;2.00;;
16813;SDS011;8524;57.650;11.926;2023-07-20T03:20:28;4.57;;;1.90;;
16813;SDS011;8524;57.650;11.926;2023-07-20T03:22:55;3.43;;;1.77;;
16813;SDS011;8524;57.650;11.926;2023-07-20T03:25:22;5.38;;;1.98;;
16813;SDS011;8524;57.650;11.926;2023-07-20T03:27:49;3.93;;;1.50;;
16813;SDS011;8524;57.650;11.926;2023-07-20T03:30:16;4.87;;;1.67;;
16813;SDS011;8524;57.650;11.926;2023-07-20T03:32:44;4.97;;;1.30;;
16813;SDS011;8524;57.650;11.926;2023-07-20T03:35:11;3.23;;;1.53;;
16813;SDS011;8524;57.650;11.926;2023-07-20T03:37:40;4.43;;;1.87;;
16813;SDS011;8524;57.650;11.926;2023-07-20T03:40:08;5.77;;;1.70;;
16813;SDS011;8524;57.650;11.926;2023-07-20T03:42:36;4.93;;;1.33;;
16813;SDS011;8524;57.650;11.926;2023-07-20T03:45:04;5.33;;;1.50;;
16813;SDS011;8524;57.650;11.926;2023-07-20T03:47:32;4.57;;;1.50;;
16813;SDS011;8524;57.650;11.926;2023-07-20T03:50:01;3.13;;;1.20;;
16813;SDS011;8524;57.650;11.926;2023-07-20T03:52:28;3.77;;;1.33;;
16813;SDS011;8524;57.650;11.926;2023-07-20T03:54:55;3.83;;;1.63;;
16813;SDS011;8524;57.650;11.926;2023-07-20T03:57:22;3.97;;;1.40;;
16813;SDS011;8524;57.650;11.926;2023-07-20T03:59:49;3.17;;;1.23;;
16813;SDS011;8524;57.650;11.926;2023-07-20T04:02:16;4.13;;;1.50;;
16813;SDS011;8524;57.650;11.926;2023-07-20T04:04:43;3.08;;;1.38;;
16813;SDS011;8524;57.650;11.926;2023-07-20T04:07:11;4.57;;;1.53;;
16813;SDS011;8524;57.650;11.926;2023-07-20T04:09:38;6.37;;;1.60;;
16813;SDS011;8524;57.650;11.926;2023-07-20T04:12:06;4.03;;;1.30;;
16813;SDS011;8524;57.650;11.926;2023-07-20T04:14:33;2.97;;;1.03;;
16813;SDS011;8524;57.650;11.926;2023-07-20T04:17:00;2.63;;;1.17;;
16813;SDS011;8524;57.650;11.926;2023-07-20T04:19:27;3.80;;;1.40;;
16813;SDS011;8524;57.650;11.926;2023-07-20T04:21:54;3.40;;;1.30;;
16813;SDS011;8524;57.650;11.926;2023-07-20T04:24:22;3.20;;;1.20;;
16813;SDS011;8524;57.650;11.926;2023-07-20T04:26:50;3.63;;;1.17;;
16813;SDS011;8524;57.650;11.926;2023-07-20T04:29:17;5.77;;;1.40;;
16813;SDS011;8524;57.650;11.926;2023-07-20T04:31:44;4.43;;;1.20;;
16813;SDS011;8524;57.650;11.926;2023-07-20T04:34:11;2.93;;;0.90;;
16813;SDS011;8524;57.650;11.926;2023-07-20T04:36:38;2.93;;;0.90;;
16813;SDS011;8524;57.650;11.926;2023-07-20T04:39:05;3.37;;;1.20;;
16813;SDS011;8524;57.650;11.926;2023-07-20T04:41:34;1.77;;;0.80;;
16813;SDS011;8524;57.650;11.926;2023-07-20T04:44:01;3.63;;;1.00;;
16813;SDS011;8524;57.650;11.926;2023-07-20T04:46:29;1.20;;;0.90;;
16813;SDS011;8524;57.650;11.926;2023-07-20T04:48:56;4.30;;;1.17;;
16813;SDS011;8524;57.650;11.926;2023-07-20T04:51:23;3.83;;;1.30;;
16813;SDS011;8524;57.650;11.926;2023-07-20T04:53:50;4.10;;;1.10;;
16813;SDS011;8524;57.650;11.926;2023-07-20T04:56:17;3.10;;;0.93;;
16813;SDS011;8524;57.650;11.926;2023-07-20T04:58:45;2.20;;;0.83;;
16813;SDS011;8524;57.650;11.926;2023-07-20T05:01:12;3.93;;;1.30;;
16813;SDS011;8524;57.650;11.926;2023-07-20T05:03:39;2.63;;;0.93;;
16813;SDS011;8524;57.650;11.926;2023-07-20T05:06:06;5.53;;;1.70;;
16813;SDS011;8524;57.650;11.926;2023-07-20T05:08:33;2.83;;;1.00;;
16813;SDS011;8524;57.650;11.926;2023-07-20T05:11:00;2.50;;;1.00;;
16813;SDS011;8524;57.650;11.926;2023-07-20T05:13:27;3.40;;;1.03;;
16813;SDS011;8524;57.650;11.926;2023-07-20T05:15:55;3.93;;;1.40;;
16813;SDS011;8524;57.650;11.926;2023-07-20T05:18:22;2.63;;;1.00;;
16813;SDS011;8524;57.650;11.926;2023-07-20T05:20:50;2.83;;;0.97;;
16813;SDS011;8524;57.650;11.926;2023-07-20T05:23:18;2.10;;;1.00;;
16813;SDS011;8524;57.650;11.926;2023-07-20T05:25:45;3.23;;;1.10;;
16813;SDS011;8524;57.650;11.926;2023-07-20T05:28:13;3.27;;;0.97;;
16813;SDS011;8524;57.650;11.926;2023-07-20T05:30:40;2.73;;;1.00;;
16813;SDS011;8524;57.650;11.926;2023-07-20T05:33:08;4.33;;;1.30;;
16813;SDS011;8524;57.650;11.926;2023-07-20T05:35:36;2.43;;;1.13;;
16813;SDS011;8524;57.650;11.926;2023-07-20T05:38:03;2.80;;;1.13;;
16813;SDS011;8524;57.650;11.926;2023-07-20T05:40:31;3.63;;;1.10;;
16813;SDS011;8524;57.650;11.926;2023-07-20T05:42:58;3.27;;;1.13;;
16813;SDS011;8524;57.650;11.926;2023-07-20T05:45:25;1.93;;;1.20;;
16813;SDS011;8524;57.650;11.926;2023-07-20T05:47:52;2.15;;;1.23;;
16813;SDS011;8524;57.650;11.926;2023-07-20T05:50:21;4.30;;;1.40;;
16813;SDS011;8524;57.650;11.926;2023-07-20T05:52:48;3.40;;;1.00;;
16813;SDS011;8524;57.650;11.926;2023-07-20T05:55:15;4.47;;;1.33;;
16813;SDS011;8524;57.650;11.926;2023-07-20T05:57:42;6.20;;;1.30;;
16813;SDS011;8524;57.650;11.926;2023-07-20T06:00:09;3.77;;;1.07;;
16813;SDS011;8524;57.650;11.926;2023-07-20T06:02:37;3.83;;;1.07;;
16813;SDS011;8524;57.650;11.926;2023-07-20T06:05:05;2.33;;;0.80;;
16813;SDS011;8524;57.650;11.926;2023-07-20T06:07:35;4.73;;;1.43;;
16813;SDS011;8524;57.650;11.926;2023-07-20T06:10:03;2.40;;;1.00;;
16813;SDS011;8524;57.650;11.926;2023-07-20T06:12:31;4.33;;;0.97;;
16813;SDS011;8524;57.650;11.926;2023-07-20T06:15:01;3.37;;;1.10;;
16813;SDS011;8524;57.650;11.926;2023-07-20T06:17:29;4.00;;;0.97;;
16813;SDS011;8524;57.650;11.926;2023-07-20T06:19:56;3.93;;;1.03;;
16813;SDS011;8524;57.650;11.926;2023-07-20T06:22:23;2.73;;;1.03;;
16813;SDS011;8524;57.650;11.926;2023-07-20T06:24:51;2.80;;;1.27;;
16813;SDS011;8524;57.650;11.926;2023-07-20T06:27:18;3.33;;;1.40;;
16813;SDS011;8524;57.650;11.926;2023-07-20T06:29:45;4.10;;;1.20;;
16813;SDS011;8524;57.650;11.926;2023-07-20T06:32:12;3.17;;;1.00;;
16813;SDS011;8524;57.650;11.926;2023-07-20T06:34:40;6.00;;;1.20;;
16813;SDS011;8524;57.650;11.926;2023-07-20T06:37:06;3.23;;;1.10;;
16813;SDS011;8524;57.650;11.926;2023-07-20T06:39:34;2.87;;;1.10;;
16813;SDS011;8524;57.650;11.926;2023-07-20T06:42:02;3.30;;;1.20;;
16813;SDS011;8524;57.650;11.926;2023-07-20T06:44:30;2.23;;;0.87;;
16813;SDS011;8524;57.650;11.926;2023-07-20T06:46:57;3.37;;;1.10;;
16813;SDS011;8524;57.650;11.926;2023-07-20T06:49:24;1.83;;;0.80;;
16813;SDS011;8524;57.650;11.926;2023-07-20T06:51:52;2.92;;;0.98;;
16813;SDS011;8524;57.650;11.926;2023-07-20T06:54:19;3.23;;;1.20;;
16813;SDS011;8524;57.650;11.926;2023-07-20T06:56:46;2.40;;;0.97;;
16813;SDS011;8524;57.650;11.926;2023-07-20T06:59:14;3.95;;;1.10;;
16813;SDS011;8524;57.650;11.926;2023-07-20T07:01:41;3.90;;;1.20;;
16813;SDS011;8524;57.650;11.926;2023-07-20T07:04:08;4.77;;;0.90;;
16813;SDS011;8524;57.650;11.926;2023-07-20T07:06:36;5.30;;;1.40;;
16813;SDS011;8524;57.650;11.926;2023-07-20T07:09:03;1.47;;;0.90;;
16813;SDS011;8524;57.650;11.926;2023-07-20T07:11:30;5.53;;;1.30;;
16813;SDS011;8524;57.650;11.926;2023-07-20T07:13:57;4.13;;;1.23;;
16813;SDS011;8524;57.650;11.926;2023-07-20T07:16:26;3.80;;;0.90;;
16813;SDS011;8524;57.650;11.926;2023-07-20T07:18:53;4.03;;;1.30;;
16813;SDS011;8524;57.650;11.926;2023-07-20T07:21:20;5.00;;;1.13;;
16813;SDS011;8524;57.650;11.926;2023-07-20T07:23:47;3.23;;;1.10;;
16813;SDS011;8524;57.650;11.926;2023-07-20T07:26:14;4.40;;;1.40;;
16813;SDS011;8524;57.650;11.926;2023-07-20T07:28:41;3.60;;;1.40;;
16813;SDS011;8524;57.650;11.926;2023-07-20T07:31:08;3.47;;;1.37;;
16813;SDS011;8524;57.650;11.926;2023-07-20T07:33:37;4.70;;;1.40;;
16813;SDS011;8524;57.650;11.926;2023-07-20T07:36:04;4.73;;;1.43;;
16813;SDS011;8524;57.650;11.926;2023-07-20T07:38:31;5.00;;;1.33;;
16813;SDS011;8524;57.650;11.926;2023-07-20T07:40:58;3.27;;;1.27;;
16813;SDS011;8524;57.650;11.926;2023-07-20T07:43:25;3.00;;;1.37;;
16813;SDS011;8524;57.650;11.926;2023-07-20T07:45:53;3.33;;;1.37;;
16813;SDS011;8524;57.650;11.926;2023-07-20T07:48:21;4.15;;;1.60;;
16813;SDS011;8524;57.650;11.926;2023-07-20T07:50:51;5.77;;;1.50;;
16813;SDS011;8524;57.650;11.926;2023-07-20T07:53:19;4.22;;;1.60;;
16813;SDS011;8524;57.650;11.926;2023-07-20T07:55:47;2.47;;;1.20;;
16813;SDS011;8524;57.650;11.926;2023-07-20T07:58:14;4.57;;;1.57;;
16813;SDS011;8524;57.650;11.926;2023-07-20T08:00:41;2.43;;;1.30;;
16813;SDS011;8524;57.650;11.926;2023-07-20T08:03:09;4.37;;;1.30;;
16813;SDS011;8524;57.650;11.926;2023-07-20T08:05:36;4.57;;;1.40;;
16813;SDS011;8524;57.650;11.926;2023-07-20T08:08:04;4.83;;;1.50;;
16813;SDS011;8524;57.650;11.926;2023-07-20T08:10:32;3.03;;;1.30;;
16813;SDS011;8524;57.650;11.926;2023-07-20T08:12:58;3.23;;;1.23;;
16813;SDS011;8524;57.650;11.926;2023-07-20T08:15:25;2.70;;;1.17;;
16813;SDS011;8524;57.650;11.926;2023-07-20T08:17:52;3.90;;;1.40;;
16813;SDS011;8524;57.650;11.926;2023-07-20T08:20:20;3.63;;;1.60;;
16813;SDS011;8524;57.650;11.926;2023-07-20T08:22:51;2.80;;;1.03;;
16813;SDS011;8524;57.650;11.926;2023-07-20T08:25:20;3.10;;;1.10;;
16813;SDS011;8524;57.650;11.926;2023-07-20T08:27:47;3.53;;;1.43;;
16813;SDS011;8524;57.650;11.926;2023-07-20T08:30:14;3.10;;;0.97;;
16813;SDS011;8524;57.650;11.926;2023-07-20T08:32:41;4.00;;;1.27;;
16813;SDS011;8524;57.650;11.926;2023-07-20T08:35:08;3.03;;;1.10;;
16813;SDS011;8524;57.650;11.926;2023-07-20T08:37:35;3.83;;;1.10;;
16813;SDS011;8524;57.650;11.926;2023-07-20T08:40:03;2.17;;;0.90;;
16813;SDS011;8524;57.650;11.926;2023-07-20T08:42:35;3.40;;;0.90;;
16813;SDS011;8524;57.650;11.926;2023-07-20T08:45:04;3.70;;;0.97;;
16813;SDS011;8524;57.650;11.926;2023-07-20T08:47:34;3.10;;;1.00;;
16813;SDS011;8524;57.650;11.926;2023-07-20T08:50:02;2.30;;;0.70;;
16813;SDS011;8524;57.650;11.926;2023-07-20T08:52:31;2.07;;;0.90;;
16813;SDS011;8524;57.650;11.926;2023-07-20T08:55:00;2.70;;;1.00;;
16813;SDS011;8524;57.650;11.926;2023-07-20T08:57:29;2.60;;;0.67;;
16813;SDS011;8524;57.650;11.926;2023-07-20T09:00:01;3.00;;;1.00;;
16813;SDS011;8524;57.650;11.926;2023-07-20T09:02:32;2.93;;;0.90;;
16813;SDS011;8524;57.650;11.926;2023-07-20T09:05:06;2.03;;;0.70;;
16813;SDS011;8524;57.650;11.926;2023-07-20T09:07:35;1.70;;;0.80;;
16813;SDS011;8524;57.650;11.926;2023-07-20T09:10:03;0.83;;;0.50;;
16813;SDS011;8524;57.650;11.926;2023-07-20T09:12:31;2.30;;;1.00;;
16813;SDS011;8524;57.650;11.926;2023-07-20T09:14:58;3.43;;;1.03;;
16813;SDS011;8524;57.650;11.926;2023-07-20T09:17:27;2.53;;;0.97;;
16813;SDS011;8524;57.650;11.926;2023-07-20T09:19:54;1.90;;;0.70;;
16813;SDS011;8524;57.650;11.926;2023-07-20T09:22:21;1.20;;;0.67;;
16813;SDS011;8524;57.650;11.926;2023-07-20T09:24:48;3.33;;;0.80;;
16813;SDS011;8524;57.650;11.926;2023-07-20T09:27:18;2.20;;;0.80;;
16813;SDS011;8524;57.650;11.926;2023-07-20T09:29:48;1.57;;;0.63;;
16813;SDS011;8524;57.650;11.926;2023-07-20T09:32:19;0.63;;;0.50;;
16813;SDS011;8524;57.650;11.926;2023-07-20T09:34:46;1.93;;;0.60;;
16813;SDS011;8524;57.650;11.926;2023-07-20T09:37:19;2.00;;;0.70;;
16813;SDS011;8524;57.650;11.926;2023-07-20T09:39:47;1.10;;;0.73;;
16813;SDS011;8524;57.650;11.926;2023-07-20T09:42:15;2.03;;;0.70;;
16813;SDS011;8524;57.650;11.926;2023-07-20T09:44:43;2.00;;;0.80;;
16813;SDS011;8524;57.650;11.926;2023-07-20T09:47:10;2.43;;;0.90;;
16813;SDS011;8524;57.650;11.926;2023-07-20T09:49:40;2.13;;;0.80;;
16813;SDS011;8524;57.650;11.926;2023-07-20T09:52:08;2.33;;;0.93;;
16813;SDS011;8524;57.650;11.926;2023-07-20T09:54:35;1.90;;;0.80;;
16813;SDS011;8524;57.650;11.926;2023-07-20T09:57:05;2.33;;;0.60;;
16813;SDS011;8524;57.650;11.926;2023-07-20T09:59:33;2.43;;;0.80;;
16813;SDS011;8524;57.650;11.926;2023-07-20T10:02:01;3.53;;;1.00;;
16813;SDS011;8524;57.650;11.926;2023-07-20T10:04:31;0.70;;;0.70;;
16813;SDS011;8524;57.650;11.926;2023-07-20T10:07:04;2.30;;;0.90;;
16813;SDS011;8524;57.650;11.926;2023-07-20T10:09:37;1.70;;;0.67;;
16813;SDS011;8524;57.650;11.926;2023-07-20T10:12:06;1.53;;;0.80;;
16813;SDS011;8524;57.650;11.926;2023-07-20T10:14:35;2.37;;;0.80;;
16813;SDS011;8524;57.650;11.926;2023-07-20T10:17:07;2.67;;;1.10;;
16813;SDS011;8524;57.650;11.926;2023-07-20T10:19:42;2.00;;;0.87;;
16813;SDS011;8524;57.650;11.926;2023-07-20T10:22:13;2.17;;;0.80;;
16813;SDS011;8524;57.650;11.926;2023-07-20T10:24:44;3.70;;;0.70;;
16813;SDS011;8524;57.650;11.926;2023-07-20T10:27:12;2.60;;;0.73;;
16813;SDS011;8524;57.650;11.926;2023-07-20T10:29:39;3.17;;;0.80;;
16813;SDS011;8524;57.650;11.926;2023-07-20T10:32:07;1.77;;;0.80;;
16813;SDS011;8524;57.650;11.926;2023-07-20T10:34:35;2.97;;;0.80;;
16813;SDS011;8524;57.650;11.926;2023-07-20T10:37:03;2.67;;;0.83;;
16813;SDS011;8524;57.650;11.926;2023-07-20T10:42:51;2.10;;;0.70;;
16813;SDS011;8524;57.650;11.926;2023-07-20T10:45:32;3.40;;;0.90;;
16813;SDS011;8524;57.650;11.926;2023-07-20T10:48:07;1.97;;;0.87;;
16813;SDS011;8524;57.650;11.926;2023-07-20T10:50:41;3.63;;;0.97;;
16813;SDS011;8524;57.650;11.926;2023-07-20T10:53:12;2.60;;;0.83;;
16813;SDS011;8524;57.650;11.926;2023-07-20T10:55:40;2.23;;;0.90;;
16813;SDS011;8524;57.650;11.926;2023-07-20T10:58:11;2.00;;;0.73;;
16813;SDS011;8524;57.650;11.926;2023-07-20T11:03:28;1.00;;;0.70;;
16813;SDS011;8524;57.650;11.926;2023-07-20T11:09:03;2.83;;;0.80;;
16813;SDS011;8524;57.650;11.926;2023-07-20T11:11:33;1.10;;;0.50;;
16813;SDS011;8524;57.650;11.926;2023-07-20T11:14:05;1.00;;;0.63;;
16813;SDS011;8524;57.650;11.926;2023-07-20T11:16:40;2.25;;;0.90;;
16813;SDS011;8524;57.650;11.926;2023-07-20T11:19:14;5.23;;;1.17;;
16813;SDS011;8524;57.650;11.926;2023-07-20T11:21:44;1.20;;;0.70;;
16813;SDS011;8524;57.650;11.926;2023-07-20T11:24:13;2.87;;;0.80;;
16813;SDS011;8524;57.650;11.926;2023-07-20T11:26:43;3.10;;;0.70;;
16813;SDS011;8524;57.650;11.926;2023-07-20T11:29:13;2.45;;;0.82;;
16813;SDS011;8524;57.650;11.926;2023-07-20T11:31:42;2.20;;;0.70;;
16813;SDS011;8524;57.650;11.926;2023-07-20T11:34:11;2.13;;;0.60;;
16813;SDS011;8524;57.650;11.926;2023-07-20T11:36:39;2.03;;;0.80;;
16813;SDS011;8524;57.650;11.926;2023-07-20T11:39:08;3.20;;;0.73;;
16813;SDS011;8524;57.650;11.926;2023-07-20T11:41:38;2.30;;;0.70;;
16813;SDS011;8524;57.650;11.926;2023-07-20T11:44:10;1.77;;;0.80;;
16813;SDS011;8524;57.650;11.926;2023-07-20T11:46:40;2.67;;;0.90;;
16813;SDS011;8524;57.650;11.926;2023-07-20T11:49:09;1.50;;;0.70;;
16813;SDS011;8524;57.650;11.926;2023-07-20T11:51:38;2.70;;;1.07;;
16813;SDS011;8524;57.650;11.926;2023-07-20T11:54:08;2.77;;;0.83;;
16813;SDS011;8524;57.650;11.926;2023-07-20T11:56:36;1.87;;;1.03;;
16813;SDS011;8524;57.650;11.926;2023-07-20T11:59:07;2.97;;;1.17;;
16813;SDS011;8524;57.650;11.926;2023-07-20T12:01:37;1.90;;;0.80;;
16813;SDS011;8524;57.650;11.926;2023-07-20T12:04:04;1.93;;;0.80;;
16813;SDS011;8524;57.650;11.926;2023-07-20T12:06:32;3.57;;;1.10;;
16813;SDS011;8524;57.650;11.926;2023-07-20T12:08:59;3.73;;;1.03;;
16813;SDS011;8524;57.650;11.926;2023-07-20T12:11:32;2.60;;;1.00;;
16813;SDS011;8524;57.650;11.926;2023-07-20T12:14:03;3.73;;;1.13;;
16813;SDS011;8524;57.650;11.926;2023-07-20T12:16:33;3.17;;;1.07;;
16813;SDS011;8524;57.650;11.926;2023-07-20T12:22:00;3.70;;;1.00;;
16813;SDS011;8524;57.650;11.926;2023-07-20T12:24:29;4.03;;;1.37;;
16813;SDS011;8524;57.650;11.926;2023-07-20T12:27:13;4.77;;;1.37;;
16813;SDS011;8524;57.650;11.926;2023-07-20T12:29:46;2.83;;;1.20;;
16813;SDS011;8524;57.650;11.926;2023-07-20T12:32:16;3.57;;;1.23;;
16813;SDS011;8524;57.650;11.926;2023-07-20T12:34:50;2.57;;;0.90;;
16813;SDS011;8524;57.650;11.926;2023-07-20T12:37:27;2.50;;;0.80;;
16813;SDS011;8524;57.650;11.926;2023-07-20T12:39:58;2.83;;;1.10;;
16813;SDS011;8524;57.650;11.926;2023-07-20T12:42:32;6.97;;;1.53;;
16813;SDS011;8524;57.650;11.926;2023-07-20T12:45:23;4.17;;;1.17;;
16813;SDS011;8524;57.650;11.926;2023-07-20T12:48:00;2.63;;;1.10;;
16813;SDS011;8524;57.650;11.926;2023-07-20T12:50:29;3.47;;;1.07;;
16813;SDS011;8524;57.650;11.926;2023-07-20T12:53:06;3.50;;;0.90;;
16813;SDS011;8524;57.650;11.926;2023-07-20T12:55:34;3.90;;;1.30;;
16813;SDS011;8524;57.650;11.926;2023-07-20T12:58:11;3.20;;;1.20;;
16813;SDS011;8524;57.650;11.926;2023-07-20T13:01:02;2.83;;;1.00;;
16813;SDS011;8524;57.650;11.926;2023-07-20T13:03:39;5.57;;;1.37;;
16813;SDS011;8524;57.650;11.926;2023-07-20T13:06:25;3.90;;;1.37;;
16813;SDS011;8524;57.650;11.926;2023-07-20T13:08:53;3.37;;;1.23;;
16813;SDS011;8524;57.650;11.926;2023-07-20T13:11:37;4.77;;;1.20;;
16813;SDS011;8524;57.650;11.926;2023-07-20T13:14:19;5.43;;;1.63;;
16813;SDS011;8524;57.650;11.926;2023-07-20T13:16:55;3.57;;;1.13;;
16813;SDS011;8524;57.650;11.926;2023-07-20T13:19:38;2.77;;;0.90;;
16813;SDS011;8524;57.650;11.926;2023-07-20T13:22:20;4.63;;;1.30;;
16813;SDS011;8524;57.650;11.926;2023-07-20T13:24:50;4.30;;;1.40;;
16813;SDS011;8524;57.650;11.926;2023-07-20T13:27:28;3.17;;;1.20;;
16813;SDS011;8524;57.650;11.926;2023-07-20T13:30:00;5.50;;;1.37;;
16813;SDS011;8524;57.650;11.926;2023-07-20T13:32:44;2.73;;;1.20;;
16813;SDS011;8524;57.650;11.926;2023-07-20T13:35:19;5.07;;;1.43;;
16813;SDS011;8524;57.650;11.926;2023-07-20T13:37:55;6.13;;;1.60;;
16813;SDS011;8524;57.650;11.926;2023-07-20T13:40:24;6.25;;;1.70;;
16813;SDS011;8524;57.650;11.926;2023-07-20T13:43:09;4.90;;;1.23;;
16813;SDS011;8524;57.650;11.926;2023-07-20T13:45:49;3.87;;;1.10;;
16813;SDS011;8524;57.650;11.926;2023-07-20T13:48:17;3.03;;;1.07;;
16813;SDS011;8524;57.650;11.926;2023-07-20T13:50:48;4.50;;;1.27;;
16813;SDS011;8524;57.650;11.926;2023-07-20T13:53:29;4.10;;;1.40;;
16813;SDS011;8524;57.650;11.926;2023-07-20T13:55:57;6.53;;;1.63;;
16813;SDS011;8524;57.650;11.926;2023-07-20T13:58:25;3.53;;;1.43;;
16813;SDS011;8524;57.650;11.926;2023-07-20T14:00:52;5.93;;;1.70;;
16813;SDS011;8524;57.650;11.926;2023-07-20T14:03:32;3.47;;;1.13;;
16813;SDS011;8524;57.650;11.926;2023-07-20T14:06:07;4.03;;;1.40;;
16813;SDS011;8524;57.650;11.926;2023-07-20T14:08:53;3.27;;;1.37;;
16813;SDS011;8524;57.650;11.926;2023-07-20T14:11:42;6.53;;;1.73;;
16813;SDS011;8524;57.650;11.926;2023-07-20T14:14:35;4.63;;;1.30;;
16813;SDS011;8524;57.650;11.926;2023-07-20T14:17:07;7.80;;;1.77;;
16813;SDS011;8524;57.650;11.926;2023-07-20T14:19:43;7.40;;;1.63;;
16813;SDS011;8524;57.650;11.926;2023-07-20T14:22:30;4.83;;;1.40;;
16813;SDS011;8524;57.650;11.926;2023-07-20T14:25:06;5.80;;;1.60;;
16813;SDS011;8524;57.650;11.926;2023-07-20T14:27:52;5.20;;;1.50;;
16813;SDS011;8524;57.650;11.926;2023-07-20T14:30:22;5.40;;;1.70;;
16813;SDS011;8524;57.650;11.926;2023-07-20T14:32:58;3.90;;;1.57;;
16813;SDS011;8524;57.650;11.926;2023-07-20T14:35:25;3.80;;;1.50;;
16813;SDS011;8524;57.650;11.926;2023-07-20T14:37:53;5.40;;;1.33;;
16813;SDS011;8524;57.650;11.926;2023-07-20T14:40:32;4.83;;;1.77;;
16813;SDS011;8524;57.650;11.926;2023-07-20T14:43:13;5.47;;;1.50;;
16813;SDS011;8524;57.650;11.926;2023-07-20T14:45:52;5.23;;;1.53;;
16813;SDS011;8524;57.650;11.926;2023-07-20T14:48:25;5.50;;;1.70;;
16813;SDS011;8524;57.650;11.926;2023-07-20T14:51:03;6.37;;;1.80;;
16813;SDS011;8524;57.650;11.926;2023-07-20T14:53:48;4.30;;;1.50;;
16813;SDS011;8524;57.650;11.926;2023-07-20T14:56:25;4.23;;;1.60;;
16813;SDS011;8524;57.650;11.926;2023-07-20T14:58:55;5.57;;;1.70;;
16813;SDS011;8524;57.650;11.926;2023-07-20T15:01:25;6.13;;;1.50;;
16813;SDS011;8524;57.650;11.926;2023-07-20T15:03:53;5.27;;;1.87;;
16813;SDS011;8524;57.650;11.926;2023-07-20T15:06:21;4.37;;;1.57;;
16813;SDS011;8524;57.650;11.926;2023-07-20T15:08:49;4.97;;;1.50;;
16813;SDS011;8524;57.650;11.926;2023-07-20T15:11:16;4.27;;;1.50;;
16813;SDS011;8524;57.650;11.926;2023-07-20T15:13:46;4.57;;;1.87;;
16813;SDS011;8524;57.650;11.926;2023-07-20T15:16:13;3.63;;;1.30;;
16813;SDS011;8524;57.650;11.926;2023-07-20T15:18:40;6.67;;;1.90;;